»·PEaware :: N670MA KBWC-KSAN

N670MA :: KBWC-KSAN

FLIGHT INFORMATION

Flight Status: Arrived
Operator: Privately registered:
United States
More flights under this callsign
Pilot: Victor C. (32144)
Aircraft: PIPER PA-44 SEMINOLE
(PA44)
More flights by this aircraft type
Origin: KBWC Brawley Mun
United States
Destination: KSAN San Diego Intl-Lindbergh
United States
More flights between these airports :: More routes between these airports
Route:
File this flight plan on PilotEdge
Remarks:
Altitude:
(Current/Filed)
8,500ft
Speed:
(Current/Filed)
150kts
Departed: 14-Jan-21 11:48 AM
Arrived: 14-Jan-21 12:29 PM
Distance/Time
Traveled:
85nm/0:40
Distance/Time
To Go:
Arrived

Flight Plot

Page will automatically refresh every two minutes.


Map Options




Map Legend


Flown Route
Filed Route
Departure Airport
Arrival Airport
Navaid (VOR, NDB)
Fix

Horizontal Profiles

Position Reports

Time Latitude Longitude Heading Altitude Ground
Speed
14-Jan-21 10:50 32.991894 -115.513333 50 -128ft 0kts
14-Jan-21 10:51 32.991895 -115.513333 50 -128ft 0kts
14-Jan-21 10:52 32.991895 -115.513333 50 -128ft 0kts
14-Jan-21 10:53 32.991895 -115.513333 50 -128ft 0kts
14-Jan-21 10:54 32.991895 -115.513333 50 -128ft 0kts
14-Jan-21 10:55 32.991895 -115.513333 50 -128ft 0kts
14-Jan-21 10:56 32.991895 -115.513333 50 -128ft 0kts
14-Jan-21 10:57 32.991895 -115.513333 50 -128ft 0kts
14-Jan-21 10:58 32.991895 -115.513333 50 -128ft 0kts
14-Jan-21 10:59 32.991895 -115.513333 50 -128ft 0kts
14-Jan-21 11:00 32.991895 -115.513332 50 -128ft 0kts
14-Jan-21 11:01 32.991895 -115.513332 50 -128ft 0kts
14-Jan-21 11:02 32.991895 -115.513332 50 -128ft 0kts
14-Jan-21 11:03 32.991895 -115.513332 50 -128ft 0kts
14-Jan-21 11:04 32.991895 -115.513332 50 -128ft 0kts
14-Jan-21 11:05 32.991895 -115.513332 50 -128ft 0kts
14-Jan-21 11:06 32.991895 -115.513332 50 -128ft 0kts
14-Jan-21 11:07 32.991895 -115.513332 50 -128ft 0kts
14-Jan-21 11:08 32.991895 -115.513332 50 -128ft 0kts
14-Jan-21 11:09 32.991895 -115.513332 50 -128ft 0kts
14-Jan-21 11:10 32.991895 -115.513331 50 -128ft 0kts
14-Jan-21 11:11 32.991895 -115.513331 50 -128ft 0kts
14-Jan-21 11:12 32.991895 -115.513331 50 -128ft 0kts
14-Jan-21 11:13 32.991895 -115.513331 50 -128ft 0kts
14-Jan-21 11:14 32.991895 -115.513331 50 -128ft 0kts
14-Jan-21 11:15 32.991895 -115.513331 50 -128ft 0kts
14-Jan-21 11:16 32.991895 -115.513331 50 -128ft 0kts
14-Jan-21 11:17 32.991895 -115.513331 50 -128ft 0kts
14-Jan-21 11:18 32.991895 -115.513331 50 -128ft 0kts
14-Jan-21 11:19 32.991895 -115.513331 50 -128ft 0kts
14-Jan-21 11:20 32.991895 -115.513331 50 -128ft 0kts
14-Jan-21 11:21 32.991895 -115.513331 50 -128ft 0kts
14-Jan-21 11:22 32.991896 -115.513331 50 -128ft 0kts
14-Jan-21 11:23 32.991896 -115.513330 50 -128ft 0kts
14-Jan-21 11:24 32.991896 -115.513330 50 -128ft 0kts
14-Jan-21 11:25 32.991896 -115.513330 50 -128ft 0kts
14-Jan-21 11:26 32.991896 -115.513330 50 -128ft 0kts
14-Jan-21 11:27 32.991896 -115.513330 50 -128ft 0kts
14-Jan-21 11:28 32.991896 -115.513330 50 -128ft 0kts
14-Jan-21 11:29 32.991896 -115.513330 50 -128ft 0kts
14-Jan-21 11:30 32.991896 -115.513330 50 -128ft 0kts
14-Jan-21 11:31 32.991896 -115.513330 50 -128ft 0kts
14-Jan-21 11:32 32.991896 -115.513330 50 -128ft 0kts
14-Jan-21 11:33 32.991896 -115.513330 50 -128ft 0kts
14-Jan-21 11:34 32.991896 -115.513330 50 -128ft 0kts
14-Jan-21 11:35 32.991896 -115.513330 50 -128ft 0kts
14-Jan-21 11:36 32.991896 -115.513330 50 -128ft 0kts
14-Jan-21 11:37 32.991896 -115.513330 50 -128ft 0kts
14-Jan-21 11:38 32.991896 -115.513330 50 -128ft 0kts
14-Jan-21 11:39 32.991896 -115.513330 50 -128ft 0kts
14-Jan-21 11:40 32.991913 -115.513288 71 -128ft 2kts
14-Jan-21 11:41 32.991774 -115.513427 312 -128ft 8kts
14-Jan-21 11:42 32.992281 -115.510721 82 -129ft 3kts
14-Jan-21 11:43 32.992494 -115.510550 358 -129ft 0kts
14-Jan-21 11:44 32.992494 -115.510551 358 -129ft 0kts
14-Jan-21 11:45 32.992494 -115.510551 358 -129ft 0kts
14-Jan-21 11:46 32.992494 -115.510551 358 -129ft 0kts
14-Jan-21 11:47 32.992961 -115.512682 264 -127ft 57kts
14-Jan-21 11:48 32.992815 -115.550450 272 1169ft 136kts
14-Jan-21 11:49 32.991497 -115.592835 269 3225ft 129kts
14-Jan-21 11:50 32.984432 -115.631932 262 5150ft 130kts
14-Jan-21 11:51 32.980596 -115.673792 271 6501ft 118kts
14-Jan-21 11:53 32.981556 -115.710451 271 7485ft 105kts
14-Jan-21 11:54 32.985505 -115.744027 271 8334ft 106kts
14-Jan-21 11:55 32.989731 -115.788568 272 8510ft 162kts
14-Jan-21 11:56 32.984608 -115.843016 253 8505ft 169kts
14-Jan-21 11:57 32.968570 -115.894935 252 8491ft 164kts
14-Jan-21 11:58 32.951774 -115.945586 252 8479ft 164kts
14-Jan-21 11:59 32.934982 -115.996079 252 8439ft 163kts
14-Jan-21 12:00 32.918140 -116.046361 252 8434ft 163kts
14-Jan-21 12:01 32.901206 -116.096922 252 8444ft 164kts
14-Jan-21 12:02 32.884309 -116.147360 251 8444ft 163kts
14-Jan-21 12:03 32.867443 -116.197745 252 8458ft 164kts
14-Jan-21 12:04 32.850569 -116.248072 252 8475ft 164kts
14-Jan-21 12:05 32.833641 -116.298650 252 8536ft 165kts
14-Jan-21 12:06 32.816742 -116.349182 252 8526ft 164kts
14-Jan-21 12:07 32.799900 -116.399579 252 8478ft 163kts
14-Jan-21 12:08 32.783127 -116.449625 252 8448ft 163kts
14-Jan-21 12:09 32.768126 -116.500327 252 8465ft 163kts
14-Jan-21 12:09 32.756603 -116.542307 252 8371ft 149kts
14-Jan-21 12:11 32.742143 -116.595399 252 7656ft 143kts
14-Jan-21 12:11 32.725375 -116.628849 232 7157ft 143kts
14-Jan-21 12:12 32.701374 -116.666838 232 6537ft 143kts
14-Jan-21 12:13 32.677651 -116.705469 250 5888ft 147kts
14-Jan-21 12:14 32.696515 -116.745407 311 5128ft 142kts
14-Jan-21 12:15 32.720942 -116.780739 311 4593ft 145kts
14-Jan-21 12:16 32.746090 -116.816638 312 4052ft 140kts
14-Jan-21 12:17 32.767927 -116.848101 312 4589ft 115kts
14-Jan-21 12:18 32.790879 -116.882860 303 4030ft 144kts
14-Jan-21 12:19 32.807310 -116.927143 276 3247ft 149kts
14-Jan-21 12:20 32.808394 -116.974646 272 2856ft 137kts
14-Jan-21 12:21 32.809294 -117.018993 272 2700ft 135kts
14-Jan-21 12:22 32.810104 -117.062538 272 2496ft 135kts
14-Jan-21 12:23 32.810907 -117.106644 271 2294ft 135kts
14-Jan-21 12:24 32.782117 -117.124216 182 2087ft 114kts
14-Jan-21 12:25 32.752416 -117.127567 182 1578ft 104kts
14-Jan-21 12:26 32.729025 -117.143653 235 708ft 96kts
14-Jan-21 12:27 32.729172 -117.171849 285 253ft 83kts
14-Jan-21 12:28 32.732862 -117.186740 286 15ft 10kts
14-Jan-21 12:29 32.733808 -117.185935 106 15ft 18kts
14-Jan-21 12:30 32.732479 -117.180455 103 14ft 15kts
14-Jan-21 12:31 32.733995 -117.179338 17 14ft 12kts
14-Jan-21 12:32 32.733769 -117.178624 151 14ft 0kts

Navigation Log

Ident Type
Flight plan parsing failed, navigation log unavailable